Brooks, Georgia
Current Conditions -  °F | °C
As of 2:35 AM on Monday 22 Dec 2014 (Local Time) from KFFC Reporting Station
Haze Haze  
Wind Chill: 44°   Ceiling: 600
Heat Index: 47°   Visibility: 2.5mi
Dew Point: 46°   Wind: 7mph
Humidity: 97%   Direction: 90°E
Pressure: 30.06"   Gusts: NA
Location:  33.29°N, 84.46°W
Report Text: KFFC 220735Z AUTO 09006KT 2 1/2SM BR OVC006 08/08 A3006 RMK AO2 CIG 005V010 T00830078
Loading
Personal Weather Stations






























Interactive Weather Map New forecast layout! Learn more

10-Day Weather Forecast

Advertisements
Track Severe Weather on mobile